createdAt,value
2019-03-10T00:00:13.343Z,11.70
2019-03-10T00:02:41.763Z,11.70
2019-03-10T00:05:10.202Z,11.70
2019-03-10T00:07:38.682Z,11.70
2019-03-10T00:10:10.126Z,11.70
2019-03-10T00:12:38.571Z,11.60
2019-03-10T00:15:11.946Z,11.80
2019-03-10T00:17:40.365Z,11.80
2019-03-10T00:20:10.139Z,11.70
2019-03-10T00:22:38.634Z,11.70
2019-03-10T00:25:08.606Z,11.60
2019-03-10T00:27:37.157Z,11.60
2019-03-10T00:30:13.481Z,11.70
2019-03-10T00:32:41.887Z,11.70
2019-03-10T00:35:10.463Z,11.70
2019-03-10T00:37:38.967Z,11.70
2019-03-10T00:40:26.862Z,11.60
2019-03-10T00:43:13.336Z,11.70
2019-03-10T00:46:10.143Z,11.70
2019-03-10T00:49:15.054Z,11.70
2019-03-10T00:51:55.591Z,11.70
2019-03-10T00:54:25.220Z,11.70
2019-03-10T00:56:53.807Z,11.70
2019-03-10T00:59:22.387Z,11.70
2019-03-10T01:01:50.876Z,11.70
2019-03-10T01:04:19.448Z,11.60
2019-03-10T01:06:47.987Z,11.60
2019-03-10T01:09:16.418Z,11.70
2019-03-10T01:11:45.880Z,11.60
2019-03-10T01:14:14.642Z,11.60
2019-03-10T01:16:43.731Z,11.60
2019-03-10T01:19:12.706Z,11.60
2019-03-10T01:21:42.392Z,11.60
2019-03-10T01:24:11.046Z,11.70
2019-03-10T01:26:39.549Z,11.70
2019-03-10T01:29:08.076Z,11.70
2019-03-10T01:32:02.003Z,11.50
2019-03-10T01:34:56.403Z,11.40
2019-03-10T01:37:24.821Z,11.40
2019-03-10T01:39:53.466Z,11.30
2019-03-10T01:42:21.976Z,11.40
2019-03-10T01:44:50.494Z,11.40
2019-03-10T01:47:19.013Z,11.40
2019-03-10T01:49:47.528Z,11.40
2019-03-10T01:52:18.089Z,11.40
2019-03-10T01:54:46.553Z,11.40
2019-03-10T01:57:15.130Z,11.40
2019-03-10T01:59:43.690Z,11.40
2019-03-10T02:02:12.169Z,11.50
2019-03-10T02:04:40.598Z,11.50
2019-03-10T02:07:09.064Z,11.40
2019-03-10T02:09:37.486Z,11.50
2019-03-10T02:12:05.979Z,11.40
2019-03-10T02:14:34.460Z,11.30
2019-03-10T02:17:02.928Z,11.40
2019-03-10T02:19:31.416Z,11.30
2019-03-10T02:21:59.879Z,11.30
2019-03-10T02:24:28.413Z,11.30
2019-03-10T02:26:56.990Z,11.20
2019-03-10T02:29:25.628Z,11.20
2019-03-10T02:31:54.212Z,11.10
2019-03-10T02:34:22.682Z,11.10
2019-03-10T02:36:51.184Z,11.10
2019-03-10T02:39:19.641Z,11.10
2019-03-10T02:41:48.168Z,11.00
2019-03-10T02:44:16.710Z,10.90
2019-03-10T02:46:45.210Z,10.90
2019-03-10T02:49:13.717Z,11.10
2019-03-10T02:51:42.217Z,10.90
2019-03-10T02:54:10.853Z,10.90
2019-03-10T02:56:39.309Z,10.90
2019-03-10T02:59:07.770Z,10.70
2019-03-10T03:01:36.271Z,10.70
2019-03-10T03:04:04.851Z,10.60
2019-03-10T03:06:33.303Z,10.60
2019-03-10T03:09:01.761Z,10.50
2019-03-10T03:11:30.289Z,10.50
2019-03-10T03:13:58.795Z,10.70
2019-03-10T03:16:27.440Z,10.60
2019-03-10T03:18:56.116Z,10.80
2019-03-10T03:21:24.743Z,10.70
2019-03-10T03:23:53.236Z,10.60
2019-03-10T03:26:21.714Z,10.60
2019-03-10T03:28:50.207Z,10.50
2019-03-10T03:31:19.194Z,10.50
2019-03-10T03:33:47.760Z,10.50
2019-03-10T03:36:22.198Z,10.50
2019-03-10T03:38:56.472Z,10.50
2019-03-10T03:41:26.315Z,10.50
2019-03-10T03:43:54.738Z,10.60
2019-03-10T03:46:23.260Z,10.80
2019-03-10T03:48:51.722Z,10.80
2019-03-10T03:51:20.232Z,10.90
2019-03-10T03:53:48.865Z,11.00
2019-03-10T03:56:17.375Z,11.20
2019-03-10T03:58:45.888Z,11.30
2019-03-10T04:01:15.976Z,11.50
2019-03-10T04:03:44.543Z,11.60
2019-03-10T04:06:12.976Z,11.70
2019-03-10T04:08:41.468Z,11.80
2019-03-10T04:11:09.980Z,11.90
2019-03-10T04:13:38.476Z,12.00
2019-03-10T04:16:06.948Z,12.10
2019-03-10T04:18:35.530Z,12.10
2019-03-10T04:21:04.063Z,12.20
2019-03-10T04:23:32.484Z,12.20
2019-03-10T04:26:01.040Z,12.20
2019-03-10T04:28:29.636Z,12.30
2019-03-10T04:30:58.151Z,12.40
2019-03-10T04:33:26.587Z,12.40
2019-03-10T04:35:55.151Z,12.50
2019-03-10T04:38:23.674Z,12.50
2019-03-10T04:40:52.125Z,12.50
2019-03-10T04:43:20.664Z,12.50
2019-03-10T04:45:49.164Z,12.50
2019-03-10T04:48:17.628Z,12.50
2019-03-10T04:50:46.069Z,12.50
2019-03-10T04:53:14.602Z,12.60
2019-03-10T04:55:47.090Z,12.60
2019-03-10T04:58:16.723Z,12.60
2019-03-10T05:00:46.781Z,12.60
2019-03-10T05:03:15.274Z,12.70
2019-03-10T05:05:43.807Z,12.70
2019-03-10T05:08:12.374Z,12.70
2019-03-10T05:10:40.850Z,12.60
2019-03-10T05:13:09.356Z,12.60
2019-03-10T05:15:37.845Z,12.60
2019-03-10T05:18:06.332Z,12.60
2019-03-10T05:20:34.842Z,12.60
2019-03-10T05:23:28.731Z,12.70
2019-03-10T05:25:57.372Z,12.60
2019-03-10T05:28:25.823Z,12.60
2019-03-10T05:30:54.374Z,12.60
2019-03-10T05:33:22.850Z,12.70
2019-03-10T05:35:51.319Z,12.70
2019-03-10T05:38:19.822Z,12.60
2019-03-10T05:40:48.338Z,12.60
2019-03-10T05:43:16.806Z,12.60
2019-03-10T05:45:45.336Z,12.60
2019-03-10T05:48:13.858Z,12.60
2019-03-10T05:50:42.298Z,12.60
2019-03-10T05:53:10.724Z,12.60
2019-03-10T05:55:39.167Z,12.60
2019-03-10T05:58:07.642Z,12.60
2019-03-10T06:00:42.620Z,12.70
2019-03-10T06:03:06.421Z,12.60
2019-03-10T06:05:34.938Z,12.60
2019-03-10T06:08:03.386Z,12.70
2019-03-10T06:10:31.810Z,12.70
2019-03-10T06:13:00.244Z,12.80
2019-03-10T06:15:28.855Z,12.80
2019-03-10T06:17:57.353Z,12.80
2019-03-10T06:20:25.798Z,12.90
2019-03-10T06:22:54.239Z,12.90
2019-03-10T06:25:22.738Z,12.90
2019-03-10T06:27:51.198Z,12.90
2019-03-10T06:30:19.616Z,12.90
2019-03-10T06:32:48.127Z,12.90
2019-03-10T06:35:16.711Z,13.00
2019-03-10T06:37:45.206Z,13.00
2019-03-10T06:40:13.769Z,13.10
2019-03-10T06:42:42.208Z,13.00
2019-03-10T06:45:10.695Z,13.10
2019-03-10T06:47:39.108Z,13.10
2019-03-10T06:50:12.263Z,13.10
2019-03-10T06:52:40.319Z,13.10
2019-03-10T06:55:08.815Z,13.20
2019-03-10T06:57:37.218Z,13.20
2019-03-10T07:00:09.399Z,13.20
2019-03-10T07:02:37.822Z,13.10
2019-03-10T07:05:08.581Z,13.10
2019-03-10T07:07:37.014Z,13.00
2019-03-10T07:10:14.539Z,13.00
2019-03-10T07:12:43.253Z,13.20
2019-03-10T07:15:13.302Z,13.20
2019-03-10T07:17:41.998Z,13.20
2019-03-10T07:20:14.068Z,13.10
2019-03-10T07:22:42.467Z,13.20
2019-03-10T07:25:11.042Z,13.00
2019-03-10T07:27:41.102Z,13.00
2019-03-10T07:30:28.108Z,12.90
2019-03-10T07:32:58.173Z,12.80
2019-03-10T07:35:42.996Z,12.70
2019-03-10T07:38:18.623Z,12.60
2019-03-10T07:40:54.425Z,12.60
2019-03-10T07:43:30.222Z,12.50
2019-03-10T07:46:00.293Z,12.40
2019-03-10T07:48:33.307Z,12.40
2019-03-10T07:51:06.473Z,12.40
2019-03-10T07:53:52.830Z,12.30
2019-03-10T07:56:29.001Z,12.30
2019-03-10T07:59:01.766Z,12.40
2019-03-10T08:01:34.510Z,12.30
2019-03-10T08:04:23.184Z,12.30
2019-03-10T08:07:02.212Z,12.30
2019-03-10T08:09:32.498Z,12.30
2019-03-10T08:12:05.255Z,12.30
2019-03-10T08:14:35.322Z,12.30
2019-03-10T08:17:05.390Z,12.30
2019-03-10T08:19:53.570Z,12.20
2019-03-10T08:22:29.117Z,12.20
2019-03-10T08:25:04.939Z,12.30
2019-03-10T08:27:43.997Z,12.20
2019-03-10T08:30:14.145Z,12.20
2019-03-10T08:33:00.614Z,12.10
2019-03-10T08:35:33.658Z,12.10
2019-03-10T08:38:03.737Z,12.10
2019-03-10T08:40:33.781Z,12.10
2019-03-10T08:43:06.323Z,12.10
2019-03-10T08:45:39.047Z,12.10
2019-03-10T08:48:09.104Z,12.10
2019-03-10T08:50:44.942Z,12.20
2019-03-10T08:53:15.013Z,12.20
2019-03-10T08:55:47.856Z,12.20
2019-03-10T08:58:17.923Z,12.20
2019-03-10T09:01:02.965Z,12.20
2019-03-10T09:03:44.959Z,12.30
2019-03-10T09:06:31.158Z,12.30
2019-03-10T09:09:01.308Z,12.40
2019-03-10T09:11:31.357Z,12.40
2019-03-10T09:14:03.914Z,12.40
2019-03-10T09:16:42.864Z,12.50
2019-03-10T09:19:28.297Z,12.60
2019-03-10T09:22:03.944Z,12.60
2019-03-10T09:24:40.198Z,12.60
2019-03-10T09:27:13.043Z,12.70
2019-03-10T09:29:43.101Z,12.70
2019-03-10T09:32:16.119Z,12.70
2019-03-10T09:34:49.771Z,12.60
2019-03-10T09:37:25.443Z,12.50
2019-03-10T09:40:13.738Z,12.50
2019-03-10T09:42:46.462Z,12.40
2019-03-10T09:45:25.537Z,12.30
2019-03-10T09:47:58.391Z,12.20
2019-03-10T09:50:28.513Z,12.10
2019-03-10T09:53:14.933Z,12.10
2019-03-10T09:56:01.450Z,12.20
2019-03-10T09:58:34.484Z,12.40
2019-03-10T10:01:16.061Z,12.40
2019-03-10T10:03:48.651Z,12.40
2019-03-10T10:06:18.706Z,12.40
2019-03-10T10:09:00.778Z,12.50
2019-03-10T10:11:30.830Z,12.30
2019-03-10T10:14:00.970Z,12.40
2019-03-10T10:16:47.490Z,12.40
2019-03-10T10:19:32.120Z,12.40
2019-03-10T10:22:02.174Z,12.30
2019-03-10T10:24:34.937Z,12.40
2019-03-10T10:30:19.258Z,12.20
2019-03-10T10:32:55.103Z,12.10
2019-03-10T10:35:41.459Z,12.30
2019-03-10T10:38:18.573Z,12.40
2019-03-10T10:40:52.089Z,12.20
2019-03-10T10:43:32.358Z,12.30
2019-03-10T10:46:05.042Z,12.20
2019-03-10T10:48:51.538Z,12.00
2019-03-10T10:51:37.860Z,12.10
2019-03-10T10:54:17.013Z,12.20
2019-03-10T10:56:47.085Z,12.30
2019-03-10T10:59:20.040Z,12.30
2019-03-10T11:01:50.124Z,12.30
2019-03-10T11:04:23.154Z,12.30
2019-03-10T11:06:53.196Z,12.30
2019-03-10T11:09:23.278Z,12.30
2019-03-10T11:11:56.017Z,12.20
2019-03-10T11:14:42.840Z,12.20
2019-03-10T11:17:29.318Z,12.20
2019-03-10T11:20:11.619Z,12.20
2019-03-10T11:22:41.696Z,12.30
2019-03-10T11:25:20.576Z,12.30
2019-03-10T11:27:59.730Z,12.30
2019-03-10T11:30:46.205Z,12.40
2019-03-10T11:33:31.594Z,12.40
2019-03-10T11:36:16.703Z,12.50
2019-03-10T11:41:48.167Z,12.60
2019-03-10T11:44:18.407Z,12.70
2019-03-10T11:47:03.341Z,12.70
2019-03-10T11:49:36.148Z,12.80
2019-03-10T11:52:09.246Z,13.00
2019-03-10T11:54:39.307Z,13.10
2019-03-10T11:57:15.553Z,13.10
2019-03-10T11:59:45.730Z,13.10
2019-03-10T12:02:21.481Z,13.20
2019-03-10T12:04:57.510Z,13.30
2019-03-10T12:07:30.372Z,13.20
2019-03-10T12:09:58.788Z,13.30
2019-03-10T12:12:27.215Z,13.30
2019-03-10T12:14:55.627Z,13.50
2019-03-10T12:17:24.065Z,13.50
2019-03-10T12:19:52.473Z,13.60
2019-03-10T12:22:20.900Z,13.60
2019-03-10T12:24:49.309Z,13.80
2019-03-10T12:27:17.726Z,13.90
2019-03-10T12:29:46.168Z,13.80
2019-03-10T12:32:14.572Z,13.80
2019-03-10T12:34:43.024Z,13.80
2019-03-10T12:37:11.434Z,13.60
2019-03-10T12:39:39.880Z,13.70
2019-03-10T12:42:08.305Z,13.70
2019-03-10T12:44:36.734Z,13.90
2019-03-10T12:47:05.435Z,14.00
2019-03-10T12:49:33.840Z,14.00
2019-03-10T12:52:02.260Z,13.90
2019-03-10T12:54:30.753Z,13.90
2019-03-10T12:56:59.169Z,13.80
2019-03-10T12:59:27.674Z,13.70
2019-03-10T13:02:05.034Z,13.70
2019-03-10T13:04:33.466Z,13.60
2019-03-10T13:07:01.895Z,13.70
2019-03-10T13:09:30.342Z,13.70
2019-03-10T13:11:58.775Z,13.70
2019-03-10T13:14:27.187Z,13.80
2019-03-10T13:16:55.626Z,13.90
2019-03-10T13:19:24.104Z,14.00
2019-03-10T13:21:52.529Z,13.90
2019-03-10T13:24:20.947Z,13.90
2019-03-10T13:26:49.354Z,13.90
2019-03-10T13:29:17.769Z,13.90
2019-03-10T13:31:46.214Z,14.00
2019-03-10T13:34:14.638Z,13.90
2019-03-10T13:36:52.475Z,14.10
2019-03-10T13:39:20.904Z,14.30
2019-03-10T13:41:49.378Z,14.80
2019-03-10T13:44:17.837Z,15.10
2019-03-10T13:46:46.256Z,15.30
2019-03-10T13:49:14.691Z,15.20
2019-03-10T13:51:43.110Z,15.30
2019-03-10T13:54:11.550Z,15.30
2019-03-10T13:56:39.951Z,15.40
2019-03-10T13:59:08.478Z,15.50
2019-03-10T14:01:36.897Z,15.50
2019-03-10T14:04:05.470Z,15.60
2019-03-10T14:06:33.907Z,15.60
2019-03-10T14:09:02.477Z,15.40
2019-03-10T14:11:30.890Z,15.30
2019-03-10T14:13:59.332Z,15.60
2019-03-10T14:16:27.763Z,15.70
2019-03-10T14:18:56.187Z,15.60
2019-03-10T14:21:24.617Z,15.40
2019-03-10T14:23:53.199Z,15.40
2019-03-10T14:26:21.625Z,15.10
2019-03-10T14:28:50.027Z,15.00
2019-03-10T14:31:18.479Z,14.80
2019-03-10T14:33:46.886Z,14.40
2019-03-10T14:36:15.317Z,13.80
2019-03-10T14:38:43.734Z,12.90
2019-03-10T14:41:12.174Z,12.30
2019-03-10T14:43:40.598Z,12.20
2019-03-10T14:46:09.098Z,12.40
2019-03-10T14:48:37.619Z,12.60
2019-03-10T14:51:06.104Z,12.70
2019-03-10T14:53:34.539Z,13.10
2019-03-10T14:56:02.975Z,13.40
2019-03-10T14:58:31.398Z,13.60
2019-03-10T15:00:59.814Z,13.80
2019-03-10T15:03:28.235Z,13.80
2019-03-10T15:05:56.665Z,13.80
2019-03-10T15:08:25.072Z,13.90
2019-03-10T15:10:53.507Z,13.80
2019-03-10T15:13:22.032Z,13.90
2019-03-10T15:15:50.450Z,13.90
2019-03-10T15:18:18.870Z,14.10
2019-03-10T15:20:47.556Z,14.10
2019-03-10T15:23:16.064Z,14.00
2019-03-10T15:25:44.535Z,13.80
2019-03-10T15:28:12.982Z,13.80
2019-03-10T15:30:41.417Z,13.70
2019-03-10T15:33:09.856Z,13.50
2019-03-10T15:35:38.351Z,13.40
2019-03-10T15:38:06.771Z,13.40
2019-03-10T15:40:35.193Z,13.30
2019-03-10T15:43:03.694Z,13.20
2019-03-10T15:45:32.110Z,13.00
2019-03-10T15:48:00.528Z,13.00
2019-03-10T15:50:49.806Z,12.90
2019-03-10T15:53:18.250Z,12.90
2019-03-10T15:55:46.694Z,12.80
2019-03-10T15:58:15.127Z,12.80
2019-03-10T16:00:43.607Z,12.70
2019-03-10T16:03:12.038Z,12.70
2019-03-10T16:05:40.438Z,12.70
2019-03-10T16:08:08.954Z,12.70
2019-03-10T16:10:37.374Z,12.70
2019-03-10T16:13:05.848Z,12.70
2019-03-10T16:15:34.355Z,12.60
2019-03-10T16:18:02.766Z,12.60
2019-03-10T16:20:31.266Z,12.70
2019-03-10T16:22:59.718Z,12.60
2019-03-10T16:25:28.187Z,12.70
2019-03-10T16:27:56.730Z,12.70
2019-03-10T16:30:26.523Z,12.70
2019-03-10T16:32:55.073Z,12.70
2019-03-10T16:35:23.622Z,12.60
2019-03-10T16:37:52.107Z,12.60
2019-03-10T16:40:23.317Z,12.50
2019-03-10T16:42:51.755Z,12.50
2019-03-10T16:45:22.510Z,12.40
2019-03-10T16:47:51.238Z,12.40
2019-03-10T16:50:21.128Z,12.50
2019-03-10T16:52:49.566Z,12.50
2019-03-10T16:55:18.118Z,12.50
2019-03-10T16:57:46.687Z,12.40
2019-03-10T17:00:18.558Z,12.30
2019-03-10T17:02:47.028Z,12.30
2019-03-10T17:05:20.131Z,12.30
2019-03-10T17:07:48.692Z,12.20
2019-03-10T17:10:24.886Z,12.10
2019-03-10T17:12:53.308Z,12.00
2019-03-10T17:15:22.938Z,11.90
2019-03-10T17:17:51.400Z,11.90
2019-03-10T17:20:20.333Z,11.90
2019-03-10T17:22:48.819Z,11.70
2019-03-10T17:25:17.687Z,11.70
2019-03-10T17:27:46.292Z,11.40
2019-03-10T17:30:19.832Z,11.20
2019-03-10T17:32:48.307Z,11.00
2019-03-10T17:35:17.671Z,10.80
2019-03-10T17:37:48.272Z,10.70
2019-03-10T17:40:18.436Z,10.40
2019-03-10T17:42:46.949Z,10.40
2019-03-10T17:45:20.149Z,10.40
2019-03-10T17:47:49.586Z,10.30
2019-03-10T17:50:18.769Z,10.20
2019-03-10T17:52:47.796Z,10.10
2019-03-10T17:55:18.473Z,10.20
2019-03-10T17:57:47.011Z,10.40
2019-03-10T18:00:18.427Z,10.60
2019-03-10T18:02:46.926Z,10.60
2019-03-10T18:05:15.342Z,10.70
2019-03-10T18:07:43.768Z,10.80
2019-03-10T18:10:17.188Z,10.70
2019-03-10T18:12:46.690Z,10.80
2019-03-10T18:15:16.564Z,10.80
2019-03-10T18:17:45.070Z,11.00
2019-03-10T18:20:21.226Z,11.00
2019-03-10T18:22:49.716Z,11.10
2019-03-10T18:25:18.276Z,11.10
2019-03-10T18:27:46.700Z,11.10
2019-03-10T18:30:18.219Z,11.10
2019-03-10T18:32:46.638Z,11.20
2019-03-10T18:35:15.125Z,11.20
2019-03-10T18:37:43.539Z,11.20
2019-03-10T18:40:19.587Z,11.30
2019-03-10T18:42:48.066Z,11.20
2019-03-10T18:45:17.914Z,11.20
2019-03-10T18:47:46.530Z,11.20
2019-03-10T18:50:19.010Z,11.30
2019-03-10T18:52:47.509Z,11.20
2019-03-10T18:55:17.188Z,11.10
2019-03-10T18:57:45.699Z,11.10
2019-03-10T19:00:22.851Z,11.10
2019-03-10T19:02:51.338Z,11.10
2019-03-10T19:05:20.125Z,11.00
2019-03-10T19:07:48.535Z,11.00
2019-03-10T19:10:17.876Z,10.70
2019-03-10T19:12:46.569Z,10.20
2019-03-10T19:15:22.179Z,9.70
2019-03-10T19:17:50.598Z,9.50
2019-03-10T19:20:19.028Z,9.40
2019-03-10T19:22:47.462Z,9.30
2019-03-10T19:25:16.618Z,9.10
2019-03-10T19:27:45.161Z,8.60
2019-03-10T19:30:15.832Z,8.40
2019-03-10T19:32:44.245Z,8.20
2019-03-10T19:35:12.923Z,8.00
2019-03-10T19:37:42.323Z,7.90
2019-03-10T19:40:21.588Z,7.90
2019-03-10T19:42:50.008Z,8.00
2019-03-10T19:45:23.206Z,8.10
2019-03-10T19:47:51.630Z,8.10
2019-03-10T19:50:27.950Z,8.20
2019-03-10T19:52:56.727Z,8.20
2019-03-10T19:55:25.528Z,8.20
2019-03-10T19:57:54.070Z,8.20
2019-03-10T20:00:22.778Z,8.00
2019-03-10T20:02:51.175Z,8.00
2019-03-10T20:05:19.686Z,7.80
2019-03-10T20:07:48.165Z,7.90
2019-03-10T20:10:21.355Z,7.80
2019-03-10T20:12:49.776Z,7.80
2019-03-10T20:15:23.298Z,7.80
2019-03-10T20:17:51.876Z,7.80
2019-03-10T20:20:22.596Z,7.70
2019-03-10T20:22:51.047Z,7.70
2019-03-10T20:25:19.521Z,7.80
2019-03-10T20:27:47.938Z,7.80
2019-03-10T20:30:18.546Z,7.80
2019-03-10T20:32:47.040Z,7.90
2019-03-10T20:35:15.599Z,7.80
2019-03-10T20:37:44.092Z,7.80
2019-03-10T20:40:17.795Z,7.70
2019-03-10T20:42:46.605Z,7.70
2019-03-10T20:45:15.950Z,7.70
2019-03-10T20:47:44.451Z,7.70
2019-03-10T20:50:17.653Z,7.70
2019-03-10T20:52:46.067Z,7.80
2019-03-10T20:55:15.141Z,7.80
2019-03-10T20:57:44.006Z,7.80
2019-03-10T21:00:25.785Z,7.80
2019-03-10T21:02:54.193Z,7.60
2019-03-10T21:05:22.703Z,7.60
2019-03-10T21:07:51.113Z,7.60
2019-03-10T21:10:22.613Z,7.60
2019-03-10T21:12:51.304Z,7.70
2019-03-10T21:15:26.021Z,7.80
2019-03-10T21:17:53.589Z,7.80
2019-03-10T21:20:26.661Z,7.80
2019-03-10T21:22:57.747Z,7.90
2019-03-10T21:25:31.314Z,7.90
2019-03-10T21:27:59.739Z,7.90
2019-03-10T21:30:32.102Z,8.00
2019-03-10T21:33:00.536Z,8.10
2019-03-10T21:35:29.004Z,8.10
2019-03-10T21:37:57.516Z,8.10
2019-03-10T21:40:30.372Z,8.10
2019-03-10T21:42:58.791Z,8.10
2019-03-10T21:45:27.201Z,8.10
2019-03-10T21:47:55.629Z,8.20
2019-03-10T21:50:24.187Z,8.20
2019-03-10T21:52:52.636Z,8.30
2019-03-10T21:55:21.030Z,8.30
2019-03-10T21:57:49.462Z,8.40
2019-03-10T22:00:19.133Z,8.30
2019-03-10T22:02:47.616Z,8.30
2019-03-10T22:05:16.886Z,8.30
2019-03-10T22:07:45.371Z,8.30
2019-03-10T22:10:26.164Z,8.30
2019-03-10T22:12:46.819Z,8.30
2019-03-10T22:15:17.278Z,8.30
2019-03-10T22:17:47.692Z,8.20
2019-03-10T22:20:20.066Z,8.10
2019-03-10T22:22:49.781Z,8.00
2019-03-10T22:25:18.727Z,7.90
2019-03-10T22:27:47.131Z,7.80
2019-03-10T22:30:22.228Z,7.80
2019-03-10T22:32:50.827Z,7.90
2019-03-10T22:35:19.227Z,7.80
2019-03-10T22:37:48.299Z,7.80
2019-03-10T22:40:17.561Z,7.80
2019-03-10T22:42:46.049Z,7.70
2019-03-10T22:45:18.414Z,7.70
2019-03-10T22:47:46.912Z,7.50
2019-03-10T22:50:16.075Z,7.50
2019-03-10T22:52:45.116Z,7.40
2019-03-10T22:55:15.196Z,7.20
2019-03-10T22:57:49.410Z,7.10
2019-03-10T23:00:39.263Z,7.00
2019-03-10T23:03:07.773Z,6.70
2019-03-10T23:16:15.498Z,6.00
2019-03-10T23:18:43.930Z,5.90
2019-03-10T23:21:12.349Z,5.80
2019-03-10T23:23:40.778Z,5.80
2019-03-10T23:26:09.185Z,5.70
2019-03-10T23:28:37.622Z,5.70
2019-03-10T23:31:06.033Z,5.70
2019-03-10T23:33:34.449Z,5.60
2019-03-10T23:36:02.889Z,5.50
2019-03-10T23:38:31.309Z,5.60
2019-03-10T23:40:59.716Z,5.50
2019-03-10T23:43:28.198Z,5.40
2019-03-10T23:45:56.636Z,5.30
2019-03-10T23:48:25.042Z,5.20
2019-03-10T23:50:53.464Z,5.20
2019-03-10T23:53:21.870Z,5.10
2019-03-10T23:55:50.303Z,5.10
2019-03-10T23:58:18.738Z,5.10
